createdAt,value
2018-09-05T00:01:35.375Z,26.30
2018-09-05T00:04:08.922Z,26.10
2018-09-05T00:06:43.319Z,26.20
2018-09-05T00:09:17.020Z,26.10
2018-09-05T00:11:51.314Z,26.20
2018-09-05T00:14:24.617Z,26.40
2018-09-05T00:16:59.136Z,26.50
2018-09-05T00:19:32.641Z,26.50
2018-09-05T00:22:05.129Z,26.70
2018-09-05T00:24:38.840Z,26.90
2018-09-05T00:27:13.555Z,27.00
2018-09-05T00:29:47.246Z,27.00
2018-09-05T00:32:20.617Z,26.70
2018-09-05T00:34:55.021Z,26.50
2018-09-05T00:37:31.536Z,26.20
2018-09-05T00:40:05.840Z,26.10
2018-09-05T00:42:39.222Z,26.20
2018-09-05T00:45:12.594Z,26.30
2018-09-05T00:47:46.556Z,26.30
2018-09-05T00:50:20.984Z,26.40
2018-09-05T00:52:56.136Z,26.20
2018-09-05T00:55:29.457Z,26.10
2018-09-05T00:58:02.996Z,26.10
2018-09-05T01:00:37.198Z,26.10
2018-09-05T01:03:11.352Z,26.10
2018-09-05T01:05:47.224Z,26.10
2018-09-05T01:08:21.242Z,25.90
2018-09-05T01:10:56.250Z,25.80
2018-09-05T01:13:33.246Z,25.60
2018-09-05T01:18:46.580Z,25.40
2018-09-05T01:21:28.217Z,25.50
2018-09-05T01:24:03.810Z,25.70
2018-09-05T01:26:39.593Z,25.90
2018-09-05T01:29:13.091Z,25.80
2018-09-05T01:31:47.584Z,25.80
2018-09-05T01:34:21.543Z,25.40
2018-09-05T01:36:54.926Z,24.90
2018-09-05T01:39:28.819Z,24.40
2018-09-05T01:42:04.016Z,24.10
2018-09-05T01:44:38.284Z,23.70
2018-09-05T01:47:15.914Z,23.40
2018-09-05T01:49:51.484Z,23.10
2018-09-05T01:52:25.374Z,22.90
2018-09-05T01:55:00.078Z,22.70
2018-09-05T01:57:34.812Z,22.50
2018-09-05T02:00:13.971Z,22.40
2018-09-05T02:02:48.192Z,22.20
2018-09-05T02:05:22.076Z,22.10
2018-09-05T02:07:55.765Z,22.00
2018-09-05T02:10:29.262Z,21.80
2018-09-05T02:13:04.286Z,21.70
2018-09-05T02:15:40.750Z,21.60
2018-09-05T02:18:14.662Z,21.50
2018-09-05T02:20:49.824Z,21.30
2018-09-05T02:23:23.153Z,21.30
2018-09-05T02:25:56.562Z,21.10
2018-09-05T02:28:29.645Z,21.00
2018-09-05T02:31:04.308Z,20.90
2018-09-05T02:33:39.755Z,20.80
2018-09-05T02:36:13.404Z,20.60
2018-09-05T02:38:47.582Z,20.40
2018-09-05T02:41:20.671Z,20.30
2018-09-05T02:43:58.028Z,20.10
2018-09-05T02:46:31.002Z,20.00
2018-09-05T02:49:04.312Z,19.90
2018-09-05T02:51:37.671Z,19.80
2018-09-05T02:54:11.120Z,19.60
2018-09-05T02:56:44.852Z,19.50
2018-09-05T02:59:18.322Z,19.40
2018-09-05T03:01:51.627Z,19.30
2018-09-05T03:04:25.826Z,19.20
2018-09-05T03:07:02.037Z,19.20
2018-09-05T03:09:38.350Z,19.10
2018-09-05T03:12:11.764Z,19.00
2018-09-05T03:14:45.346Z,18.90
2018-09-05T03:17:23.829Z,18.90
2018-09-05T03:23:15.565Z,18.90
2018-09-05T03:25:50.904Z,18.80
2018-09-05T03:36:01.517Z,18.60
2018-09-05T03:38:53.846Z,18.50
2018-09-05T03:44:54.334Z,18.50
2018-09-05T03:53:53.650Z,18.40
2018-09-05T04:02:10.230Z,18.20
2018-09-05T04:05:06.321Z,18.20
2018-09-05T04:08:10.222Z,18.10
2018-09-05T04:10:57.337Z,18.10
2018-09-05T04:14:02.403Z,18.00
2018-09-05T04:28:53.045Z,17.70
2018-09-05T04:34:10.733Z,17.60
2018-09-05T04:54:16.716Z,17.30
2018-09-05T04:56:55.318Z,17.20
2018-09-05T05:06:11.068Z,17.00
2018-09-05T05:09:17.455Z,16.80
2018-09-05T05:11:51.779Z,16.80
2018-09-05T05:15:09.101Z,16.80
2018-09-05T05:18:23.240Z,16.80
2018-09-05T05:21:13.348Z,16.90
2018-09-05T05:24:17.357Z,16.90
2018-09-05T05:26:59.885Z,16.80
2018-09-05T05:36:14.496Z,16.60
2018-09-05T05:39:12.011Z,16.60
2018-09-05T05:42:30.952Z,16.50
2018-09-05T05:55:52.187Z,16.40
2018-09-05T06:04:32.342Z,16.20
2018-09-05T06:07:15.757Z,16.20
2018-09-05T06:10:07.173Z,16.20
2018-09-05T06:12:48.889Z,16.10
2018-09-05T06:18:58.310Z,16.20
2018-09-05T06:21:31.668Z,16.10
2018-09-05T06:24:05.163Z,16.10
2018-09-05T06:29:39.671Z,16.10
2018-09-05T06:32:13.354Z,16.10
2018-09-05T06:37:32.931Z,16.00
2018-09-05T06:40:12.089Z,15.90
2018-09-05T06:43:16.695Z,15.80
2018-09-05T06:48:42.197Z,15.60
2018-09-05T06:54:12.642Z,15.50
2018-09-05T06:57:05.807Z,15.50
2018-09-05T06:59:47.998Z,15.40
2018-09-05T07:02:24.123Z,15.40
2018-09-05T07:07:58.625Z,15.30
2018-09-05T07:11:29.584Z,15.20
2018-09-05T07:14:15.641Z,15.20
2018-09-05T07:20:21.268Z,15.10
2018-09-05T07:23:12.146Z,15.10
2018-09-05T07:25:55.760Z,14.90
2018-09-05T07:28:31.329Z,14.90
2018-09-05T07:31:18.519Z,14.90
2018-09-05T07:37:39.432Z,14.80
2018-09-05T07:40:16.976Z,14.70
2018-09-05T14:43:27.303Z,12.30
2018-09-05T14:46:11.563Z,12.60
2018-09-05T14:49:03.576Z,12.70
2018-09-05T14:52:19.534Z,12.80
2018-09-05T14:58:08.734Z,12.90
2018-09-05T15:14:51.044Z,13.20
2018-09-05T15:17:26.147Z,13.80
2018-09-05T15:20:04.111Z,13.80
2018-09-05T15:22:37.091Z,14.00
2018-09-05T15:25:27.063Z,14.10
2018-09-05T15:28:00.391Z,14.20
2018-09-05T15:30:34.027Z,14.30
2018-09-05T15:33:11.508Z,14.40
2018-09-05T15:35:47.796Z,14.50
2018-09-05T15:38:22.284Z,14.60
2018-09-05T15:40:55.523Z,14.70
2018-09-05T15:43:29.548Z,14.80
2018-09-05T15:46:02.864Z,14.90
2018-09-05T15:48:36.393Z,15.10
2018-09-05T15:51:09.635Z,15.10
2018-09-05T15:53:45.414Z,15.20
2018-09-05T15:56:18.478Z,15.20
2018-09-05T15:58:53.513Z,15.40
2018-09-05T16:01:28.984Z,15.60
2018-09-05T16:04:03.917Z,16.20
2018-09-05T16:06:38.205Z,16.70
2018-09-05T16:09:13.007Z,16.90
2018-09-05T16:11:46.667Z,17.50
2018-09-05T16:14:20.235Z,17.90
2018-09-05T16:16:53.904Z,18.30
2018-09-05T16:19:27.380Z,18.50
2018-09-05T16:22:01.649Z,18.40
2018-09-05T16:24:35.203Z,18.10
2018-09-05T16:27:08.246Z,17.80
2018-09-05T16:29:43.282Z,17.60
2018-09-05T16:32:38.569Z,17.50
2018-09-05T16:48:34.903Z,17.20
2018-09-05T16:51:09.541Z,17.30
2018-09-05T16:53:42.641Z,17.30
2018-09-05T16:56:17.796Z,17.40
2018-09-05T16:58:56.646Z,17.50
2018-09-05T17:01:30.197Z,17.60
2018-09-05T17:04:03.519Z,17.70
2018-09-05T17:06:36.890Z,17.80
2018-09-05T17:09:14.080Z,17.90
2018-09-05T17:11:47.770Z,18.10
2018-09-05T17:14:21.985Z,18.10
2018-09-05T17:16:57.399Z,18.10
2018-09-05T17:19:30.707Z,18.20
2018-09-05T17:22:04.171Z,18.20
2018-09-05T17:24:37.535Z,18.30
2018-09-05T17:27:10.918Z,18.20
2018-09-05T17:29:44.433Z,18.40
2018-09-05T17:32:20.876Z,18.50
2018-09-05T17:34:54.195Z,18.60
2018-09-05T17:37:27.959Z,18.80
2018-09-05T17:40:02.584Z,18.90
2018-09-05T17:42:37.118Z,19.00
2018-09-05T17:45:10.451Z,19.20
2018-09-05T17:47:43.690Z,19.30
2018-09-05T17:50:18.616Z,19.30
2018-09-05T17:52:51.914Z,19.40
2018-09-05T17:55:26.108Z,19.40
2018-09-05T17:57:59.574Z,19.50
2018-09-05T18:00:35.740Z,19.60
2018-09-05T18:03:08.937Z,19.80
2018-09-05T18:05:44.403Z,19.90
2018-09-05T18:08:21.412Z,20.00
2018-09-05T18:10:55.189Z,20.20
2018-09-05T18:13:29.130Z,20.30
2018-09-05T18:16:02.995Z,20.40
2018-09-05T18:18:38.186Z,20.40
2018-09-05T18:21:13.196Z,20.40
2018-09-05T18:23:47.092Z,20.50
2018-09-05T18:26:21.847Z,20.60
2018-09-05T18:28:55.173Z,20.80
2018-09-05T18:31:31.966Z,20.90
2018-09-05T18:34:07.970Z,21.00
2018-09-05T18:36:41.794Z,21.00
2018-09-05T18:39:20.507Z,21.10
2018-09-05T18:41:53.938Z,21.10
2018-09-05T18:44:27.215Z,21.20
2018-09-05T18:47:00.634Z,21.30
2018-09-05T18:49:36.845Z,21.30
2018-09-05T18:52:11.007Z,21.50
2018-09-05T18:54:45.361Z,21.50
2018-09-05T18:57:19.699Z,21.60
2018-09-05T18:59:52.953Z,21.70
2018-09-05T19:02:26.279Z,21.80
2018-09-05T19:05:04.483Z,21.80
2018-09-05T19:07:38.236Z,21.90
2018-09-05T19:10:11.694Z,22.00
2018-09-05T19:12:45.025Z,22.20
2018-09-05T19:15:18.484Z,22.30
2018-09-05T19:17:51.682Z,22.50
2018-09-05T19:20:25.675Z,22.60
2018-09-05T19:22:59.300Z,22.50
2018-09-05T19:25:33.127Z,22.60
2018-09-05T19:28:08.321Z,22.60
2018-09-05T19:30:42.759Z,22.70
2018-09-05T19:33:17.185Z,22.80
2018-09-05T19:35:50.856Z,22.90
2018-09-05T19:38:24.634Z,23.00
2018-09-05T19:40:58.616Z,23.10
2018-09-05T19:43:32.037Z,22.90
2018-09-05T19:46:05.416Z,23.10
2018-09-05T19:48:40.081Z,23.20
2018-09-05T19:51:14.854Z,23.40
2018-09-05T19:53:48.208Z,23.60
2018-09-05T19:56:24.449Z,23.60
2018-09-05T19:58:59.574Z,23.60
2018-09-05T20:01:33.999Z,23.60
2018-09-05T20:04:08.242Z,23.70
2018-09-05T20:06:41.805Z,23.90
2018-09-05T20:09:15.148Z,23.90
2018-09-05T20:11:49.451Z,24.00
2018-09-05T20:14:22.887Z,24.10
2018-09-05T20:16:56.411Z,24.30
2018-09-05T20:19:29.733Z,24.40
2018-09-05T20:22:04.223Z,24.50
2018-09-05T20:24:37.741Z,24.70
2018-09-05T20:27:11.853Z,24.90
2018-09-05T20:29:45.301Z,24.90
2018-09-05T20:32:18.962Z,24.80
2018-09-05T20:34:52.340Z,24.80
2018-09-05T20:37:25.782Z,24.80
2018-09-05T20:39:58.925Z,24.80
2018-09-05T20:42:32.463Z,25.00
2018-09-05T20:45:12.048Z,25.20
2018-09-05T20:47:46.040Z,25.20
2018-09-05T20:50:20.057Z,25.30
2018-09-05T20:52:53.348Z,25.40
2018-09-05T20:55:27.935Z,25.50
2018-09-05T20:58:01.278Z,25.70
2018-09-05T21:00:35.631Z,25.70
2018-09-05T21:03:09.711Z,25.80
2018-09-05T21:05:42.838Z,25.90
2018-09-05T21:08:19.268Z,26.10
2018-09-05T21:10:52.622Z,26.20
2018-09-05T21:13:27.540Z,26.20
2018-09-05T21:16:01.672Z,26.30
2018-09-05T21:18:35.691Z,26.50
2018-09-05T21:21:09.224Z,26.50
2018-09-05T21:23:42.474Z,26.70
2018-09-05T21:26:16.518Z,26.90
2018-09-05T21:28:50.121Z,27.10
2018-09-05T21:31:29.112Z,27.30
2018-09-05T21:34:03.916Z,27.30
2018-09-05T21:36:38.905Z,27.50
2018-09-05T21:39:13.202Z,27.40
2018-09-05T21:41:46.612Z,27.40
2018-09-05T21:44:21.507Z,27.50
2018-09-05T21:46:56.269Z,27.70
2018-09-05T21:49:29.725Z,27.60
2018-09-05T21:52:04.231Z,27.70
2018-09-05T21:54:38.841Z,27.90
2018-09-05T21:57:13.270Z,28.20
2018-09-05T21:59:46.429Z,28.20
2018-09-05T22:02:19.823Z,27.90
2018-09-05T22:04:53.149Z,28.20
2018-09-05T22:07:26.573Z,28.50
2018-09-05T22:10:02.414Z,28.60
2018-09-05T22:12:36.978Z,28.80
2018-09-05T22:15:11.027Z,28.80
2018-09-05T22:17:46.772Z,28.60
2018-09-05T22:20:21.125Z,28.70
2018-09-05T22:22:54.429Z,28.80
2018-09-05T22:25:27.720Z,28.90
2018-09-05T22:28:02.271Z,29.20
2018-09-05T22:30:36.240Z,29.20
2018-09-05T22:33:10.823Z,29.30
2018-09-05T22:35:45.938Z,29.30
2018-09-05T22:38:19.918Z,29.10
2018-09-05T22:40:56.102Z,29.20
2018-09-05T22:43:39.010Z,29.30
2018-09-05T22:46:21.214Z,29.30
2018-09-05T22:52:14.061Z,29.30
2018-09-05T22:55:32.245Z,29.40
2018-09-05T22:58:18.786Z,29.50
2018-09-05T23:04:11.829Z,29.50
2018-09-05T23:06:54.159Z,29.70
2018-09-05T23:09:37.664Z,30.00
2018-09-05T23:12:21.329Z,30.00
2018-09-05T23:15:06.395Z,30.10
2018-09-05T23:17:49.578Z,30.20
2018-09-05T23:21:30.145Z,30.20
2018-09-05T23:24:10.403Z,30.10
2018-09-05T23:26:43.860Z,30.10
2018-09-05T23:29:17.439Z,30.20
2018-09-05T23:31:50.912Z,30.10
2018-09-05T23:34:24.192Z,30.00
2018-09-05T23:36:57.516Z,29.90
2018-09-05T23:39:30.562Z,29.90
2018-09-05T23:42:03.767Z,29.90
2018-09-05T23:44:37.425Z,29.90
2018-09-05T23:47:11.067Z,29.80
2018-09-05T23:49:46.083Z,29.80
2018-09-05T23:52:19.771Z,29.80
2018-09-05T23:54:53.852Z,29.80
2018-09-05T23:57:27.468Z,29.90
